sensor_id;sensor_type;location;lat;lon;timestamp;pressure;altitude;pressure_sealevel;temperature
64916;BMP280;51427;-27.442;153.014;2023-07-31T00:00:31;102291.16;;;21.19
64916;BMP280;51427;-27.442;153.014;2023-07-31T00:02:58;102282.09;;;22.19
64916;BMP280;51427;-27.442;153.014;2023-07-31T00:05:26;102279.00;;;22.14
64916;BMP280;51427;-27.442;153.014;2023-07-31T00:07:53;102276.97;;;22.06
64916;BMP280;51427;-27.442;153.014;2023-07-31T00:10:21;102272.53;;;22.34
64916;BMP280;51427;-27.442;153.014;2023-07-31T00:12:49;102279.69;;;21.52
64916;BMP280;51427;-27.442;153.014;2023-07-31T00:15:17;102269.56;;;21.65
64916;BMP280;51427;-27.442;153.014;2023-07-31T00:17:45;102273.25;;;21.21
64916;BMP280;51427;-27.442;153.014;2023-07-31T00:20:13;102260.84;;;22.06
64916;BMP280;51427;-27.442;153.014;2023-07-31T00:22:41;102258.44;;;22.41
64916;BMP280;51427;-27.442;153.014;2023-07-31T00:25:08;102258.81;;;21.98
64916;BMP280;51427;-27.442;153.014;2023-07-31T00:27:54;102252.28;;;22.07
64916;BMP280;51427;-27.442;153.014;2023-07-31T00:30:21;102243.47;;;22.73
64916;BMP280;51427;-27.442;153.014;2023-07-31T00:32:51;102251.88;;;21.88
64916;BMP280;51427;-27.442;153.014;2023-07-31T00:35:19;102242.91;;;22.57
64916;BMP280;51427;-27.442;153.014;2023-07-31T00:37:47;102232.69;;;23.05
64916;BMP280;51427;-27.442;153.014;2023-07-31T00:40:14;102234.94;;;22.61
64916;BMP280;51427;-27.442;153.014;2023-07-31T00:42:42;102227.19;;;22.13
64916;BMP280;51427;-27.442;153.014;2023-07-31T00:45:10;102219.13;;;23.27
64916;BMP280;51427;-27.442;153.014;2023-07-31T00:47:38;102223.03;;;23.20
64916;BMP280;51427;-27.442;153.014;2023-07-31T00:50:06;102218.41;;;23.02
64916;BMP280;51427;-27.442;153.014;2023-07-31T00:52:35;102214.19;;;22.78
64916;BMP280;51427;-27.442;153.014;2023-07-31T00:55:03;102208.38;;;23.46
64916;BMP280;51427;-27.442;153.014;2023-07-31T00:57:32;102203.78;;;23.96
64916;BMP280;51427;-27.442;153.014;2023-07-31T01:00:00;102202.97;;;23.04
64916;BMP280;51427;-27.442;153.014;2023-07-31T01:02:28;102201.00;;;23.54
64916;BMP280;51427;-27.442;153.014;2023-07-31T01:04:56;102185.06;;;24.60
64916;BMP280;51427;-27.442;153.014;2023-07-31T01:12:28;102185.34;;;22.88
64916;BMP280;51427;-27.442;153.014;2023-07-31T01:15:07;102176.59;;;24.06
64916;BMP280;51427;-27.442;153.014;2023-07-31T01:17:39;102176.88;;;23.68
64916;BMP280;51427;-27.442;153.014;2023-07-31T01:20:21;102173.28;;;23.71
64916;BMP280;51427;-27.442;153.014;2023-07-31T01:25:43;102162.38;;;24.23
64916;BMP280;51427;-27.442;153.014;2023-07-31T01:29:01;102148.53;;;25.01
64916;BMP280;51427;-27.442;153.014;2023-07-31T01:31:04;102146.25;;;25.18
64916;BMP280;51427;-27.442;153.014;2023-07-31T01:33:35;102143.31;;;23.73
64916;BMP280;51427;-27.442;153.014;2023-07-31T01:36:04;102141.22;;;24.21
64916;BMP280;51427;-27.442;153.014;2023-07-31T01:38:32;102130.38;;;25.24
64916;BMP280;51427;-27.442;153.014;2023-07-31T01:41:00;102116.84;;;25.83
64916;BMP280;51427;-27.442;153.014;2023-07-31T01:43:27;102114.38;;;26.11
64916;BMP280;51427;-27.442;153.014;2023-07-31T01:45:55;102107.41;;;24.71
64916;BMP280;51427;-27.442;153.014;2023-07-31T01:48:22;102113.56;;;24.15
64916;BMP280;51427;-27.442;153.014;2023-07-31T01:50:50;102104.72;;;24.41
64916;BMP280;51427;-27.442;153.014;2023-07-31T01:53:18;102084.13;;;25.25
64916;BMP280;51427;-27.442;153.014;2023-07-31T01:55:45;102080.44;;;25.89
64916;BMP280;51427;-27.442;153.014;2023-07-31T01:58:13;102081.44;;;26.64
64916;BMP280;51427;-27.442;153.014;2023-07-31T02:00:40;102070.81;;;25.81
64916;BMP280;51427;-27.442;153.014;2023-07-31T02:03:08;102062.47;;;26.56
64916;BMP280;51427;-27.442;153.014;2023-07-31T02:05:35;102054.78;;;27.03
64916;BMP280;51427;-27.442;153.014;2023-07-31T02:08:03;102048.03;;;26.64
64916;BMP280;51427;-27.442;153.014;2023-07-31T02:10:31;102043.84;;;27.37
64916;BMP280;51427;-27.442;153.014;2023-07-31T02:12:58;102041.69;;;27.51
64916;BMP280;51427;-27.442;153.014;2023-07-31T02:15:26;102030.94;;;27.92
64916;BMP280;51427;-27.442;153.014;2023-07-31T02:17:53;102022.88;;;27.78
64916;BMP280;51427;-27.442;153.014;2023-07-31T02:20:21;102021.88;;;28.05
64916;BMP280;51427;-27.442;153.014;2023-07-31T02:22:49;102013.84;;;28.35
64916;BMP280;51427;-27.442;153.014;2023-07-31T02:25:16;102016.50;;;27.82
64916;BMP280;51427;-27.442;153.014;2023-07-31T02:27:44;102014.34;;;28.21
64916;BMP280;51427;-27.442;153.014;2023-07-31T02:30:11;102015.41;;;27.48
64916;BMP280;51427;-27.442;153.014;2023-07-31T02:32:39;101991.81;;;28.75
64916;BMP280;51427;-27.442;153.014;2023-07-31T02:35:07;102007.59;;;28.37
64916;BMP280;51427;-27.442;153.014;2023-07-31T02:37:35;102004.97;;;27.85
64916;BMP280;51427;-27.442;153.014;2023-07-31T02:43:06;101983.31;;;28.23
64916;BMP280;51427;-27.442;153.014;2023-07-31T02:45:34;101976.50;;;28.56
64916;BMP280;51427;-27.442;153.014;2023-07-31T02:48:01;101966.41;;;28.63
64916;BMP280;51427;-27.442;153.014;2023-07-31T02:50:29;101972.94;;;28.67
64916;BMP280;51427;-27.442;153.014;2023-07-31T02:52:57;101957.72;;;29.14
64916;BMP280;51427;-27.442;153.014;2023-07-31T02:55:24;101965.13;;;28.24
64916;BMP280;51427;-27.442;153.014;2023-07-31T02:57:52;101956.38;;;28.94
64916;BMP280;51427;-27.442;153.014;2023-07-31T03:00:20;101966.91;;;28.06
64916;BMP280;51427;-27.442;153.014;2023-07-31T03:02:47;101942.91;;;27.88
64916;BMP280;51427;-27.442;153.014;2023-07-31T03:05:15;101939.31;;;28.51
64916;BMP280;51427;-27.442;153.014;2023-07-31T03:07:43;101942.34;;;28.12
64916;BMP280;51427;-27.442;153.014;2023-07-31T03:10:10;101937.53;;;29.02
64916;BMP280;51427;-27.442;153.014;2023-07-31T03:12:38;101931.56;;;29.26
64916;BMP280;51427;-27.442;153.014;2023-07-31T03:15:06;101935.44;;;28.12
64916;BMP280;51427;-27.442;153.014;2023-07-31T03:17:34;101929.78;;;28.69
64916;BMP280;51427;-27.442;153.014;2023-07-31T03:20:01;101932.31;;;27.74
64916;BMP280;51427;-27.442;153.014;2023-07-31T03:22:29;101924.09;;;27.71
64916;BMP280;51427;-27.442;153.014;2023-07-31T03:24:56;101923.50;;;28.96
64916;BMP280;51427;-27.442;153.014;2023-07-31T03:27:24;101915.38;;;29.66
64916;BMP280;51427;-27.442;153.014;2023-07-31T03:29:51;101910.13;;;29.26
64916;BMP280;51427;-27.442;153.014;2023-07-31T03:32:19;101916.22;;;28.92
64916;BMP280;51427;-27.442;153.014;2023-07-31T03:34:47;101907.94;;;28.13
64916;BMP280;51427;-27.442;153.014;2023-07-31T03:37:14;101907.47;;;29.18
64916;BMP280;51427;-27.442;153.014;2023-07-31T03:39:42;101899.09;;;29.16
64916;BMP280;51427;-27.442;153.014;2023-07-31T03:42:09;101904.19;;;29.00
64916;BMP280;51427;-27.442;153.014;2023-07-31T03:44:37;101915.28;;;27.90
64916;BMP280;51427;-27.442;153.014;2023-07-31T03:47:05;101894.16;;;29.23
64916;BMP280;51427;-27.442;153.014;2023-07-31T03:49:32;101892.09;;;28.25
64916;BMP280;51427;-27.442;153.014;2023-07-31T03:52:00;101892.38;;;28.39
64916;BMP280;51427;-27.442;153.014;2023-07-31T03:54:28;101886.94;;;29.34
64916;BMP280;51427;-27.442;153.014;2023-07-31T03:56:55;101883.25;;;29.03
64916;BMP280;51427;-27.442;153.014;2023-07-31T03:59:23;101884.72;;;28.30
64916;BMP280;51427;-27.442;153.014;2023-07-31T04:01:50;101887.09;;;28.99
64916;BMP280;51427;-27.442;153.014;2023-07-31T04:04:18;101879.03;;;28.19
64916;BMP280;51427;-27.442;153.014;2023-07-31T04:06:45;101874.63;;;28.11
64916;BMP280;51427;-27.442;153.014;2023-07-31T04:09:13;101873.09;;;28.69
64916;BMP280;51427;-27.442;153.014;2023-07-31T04:11:40;101873.75;;;29.04
64916;BMP280;51427;-27.442;153.014;2023-07-31T04:14:09;101876.50;;;29.02
64916;BMP280;51427;-27.442;153.014;2023-07-31T04:16:37;101872.47;;;28.67
64916;BMP280;51427;-27.442;153.014;2023-07-31T04:19:04;101879.97;;;28.85
64916;BMP280;51427;-27.442;153.014;2023-07-31T04:21:32;101875.81;;;28.42
64916;BMP280;51427;-27.442;153.014;2023-07-31T04:23:59;101870.25;;;28.79
64916;BMP280;51427;-27.442;153.014;2023-07-31T04:26:27;101868.53;;;27.95
64916;BMP280;51427;-27.442;153.014;2023-07-31T04:28:54;101876.16;;;27.70
64916;BMP280;51427;-27.442;153.014;2023-07-31T04:31:22;101859.56;;;28.67
64916;BMP280;51427;-27.442;153.014;2023-07-31T04:33:50;101873.94;;;27.57
64916;BMP280;51427;-27.442;153.014;2023-07-31T04:36:17;101864.63;;;28.33
64916;BMP280;51427;-27.442;153.014;2023-07-31T04:38:45;101869.28;;;29.14
64916;BMP280;51427;-27.442;153.014;2023-07-31T04:41:12;101864.13;;;28.73
64916;BMP280;51427;-27.442;153.014;2023-07-31T04:43:40;101878.69;;;27.08
64916;BMP280;51427;-27.442;153.014;2023-07-31T04:46:08;101865.94;;;27.34
64916;BMP280;51427;-27.442;153.014;2023-07-31T04:48:35;101868.00;;;27.57
64916;BMP280;51427;-27.442;153.014;2023-07-31T04:51:03;101862.63;;;27.68
64916;BMP280;51427;-27.442;153.014;2023-07-31T04:53:30;101854.59;;;28.05
64916;BMP280;51427;-27.442;153.014;2023-07-31T04:55:58;101852.03;;;28.48
64916;BMP280;51427;-27.442;153.014;2023-07-31T04:58:26;101865.81;;;27.35
64916;BMP280;51427;-27.442;153.014;2023-07-31T05:00:54;101860.13;;;28.10
64916;BMP280;51427;-27.442;153.014;2023-07-31T05:03:21;101859.25;;;28.44
64916;BMP280;51427;-27.442;153.014;2023-07-31T05:05:50;101862.28;;;28.40
64916;BMP280;51427;-27.442;153.014;2023-07-31T05:08:18;101861.16;;;28.93
64916;BMP280;51427;-27.442;153.014;2023-07-31T05:10:46;101864.72;;;29.00
64916;BMP280;51427;-27.442;153.014;2023-07-31T05:13:14;101865.53;;;27.38
64916;BMP280;51427;-27.442;153.014;2023-07-31T05:15:41;101873.41;;;26.64
64916;BMP280;51427;-27.442;153.014;2023-07-31T05:18:09;101874.81;;;26.21
64916;BMP280;51427;-27.442;153.014;2023-07-31T05:20:37;101875.34;;;26.25
64916;BMP280;51427;-27.442;153.014;2023-07-31T05:23:04;101876.41;;;26.22
64916;BMP280;51427;-27.442;153.014;2023-07-31T05:25:32;101881.44;;;25.77
64916;BMP280;51427;-27.442;153.014;2023-07-31T05:27:59;101887.34;;;25.68
64916;BMP280;51427;-27.442;153.014;2023-07-31T05:30:29;101883.44;;;25.64
64916;BMP280;51427;-27.442;153.014;2023-07-31T05:32:57;101883.91;;;25.39
64916;BMP280;51427;-27.442;153.014;2023-07-31T05:35:24;101893.00;;;25.23
64916;BMP280;51427;-27.442;153.014;2023-07-31T05:37:52;101888.63;;;25.34
64916;BMP280;51427;-27.442;153.014;2023-07-31T05:40:19;101891.03;;;25.26
64916;BMP280;51427;-27.442;153.014;2023-07-31T05:42:47;101895.69;;;25.21
64916;BMP280;51427;-27.442;153.014;2023-07-31T05:45:15;101906.47;;;25.06
64916;BMP280;51427;-27.442;153.014;2023-07-31T05:47:42;101902.53;;;24.82
64916;BMP280;51427;-27.442;153.014;2023-07-31T05:50:10;101901.06;;;24.89
64916;BMP280;51427;-27.442;153.014;2023-07-31T05:52:38;101904.38;;;24.70
64916;BMP280;51427;-27.442;153.014;2023-07-31T05:55:05;101903.91;;;24.45
64916;BMP280;51427;-27.442;153.014;2023-07-31T05:57:34;101902.69;;;24.29
64916;BMP280;51427;-27.442;153.014;2023-07-31T06:00:03;101908.16;;;24.35
64916;BMP280;51427;-27.442;153.014;2023-07-31T06:02:31;101910.19;;;23.90
64916;BMP280;51427;-27.442;153.014;2023-07-31T06:04:59;101913.09;;;23.85
64916;BMP280;51427;-27.442;153.014;2023-07-31T06:07:28;101915.59;;;23.65
64916;BMP280;51427;-27.442;153.014;2023-07-31T06:09:55;101915.94;;;23.71
64916;BMP280;51427;-27.442;153.014;2023-07-31T06:12:24;101916.59;;;23.84
64916;BMP280;51427;-27.442;153.014;2023-07-31T06:14:51;101918.84;;;23.67
64916;BMP280;51427;-27.442;153.014;2023-07-31T06:17:19;101921.53;;;23.22
64916;BMP280;51427;-27.442;153.014;2023-07-31T06:19:47;101917.25;;;23.12
64916;BMP280;51427;-27.442;153.014;2023-07-31T06:22:14;101930.59;;;23.04
64916;BMP280;51427;-27.442;153.014;2023-07-31T06:24:42;101935.69;;;22.93
64916;BMP280;51427;-27.442;153.014;2023-07-31T06:27:09;101940.00;;;22.80
64916;BMP280;51427;-27.442;153.014;2023-07-31T06:29:37;101944.72;;;22.63
64916;BMP280;51427;-27.442;153.014;2023-07-31T06:32:05;101947.28;;;22.63
64916;BMP280;51427;-27.442;153.014;2023-07-31T06:34:32;101943.16;;;22.73
64916;BMP280;51427;-27.442;153.014;2023-07-31T06:37:00;101950.03;;;22.49
64916;BMP280;51427;-27.442;153.014;2023-07-31T06:39:28;101949.47;;;22.23
64916;BMP280;51427;-27.442;153.014;2023-07-31T06:41:55;101956.91;;;22.13
64916;BMP280;51427;-27.442;153.014;2023-07-31T06:44:23;101964.88;;;22.21
64916;BMP280;51427;-27.442;153.014;2023-07-31T06:46:51;101965.06;;;22.18
64916;BMP280;51427;-27.442;153.014;2023-07-31T06:49:19;101965.16;;;22.17
64916;BMP280;51427;-27.442;153.014;2023-07-31T06:51:46;101971.09;;;21.82
64916;BMP280;51427;-27.442;153.014;2023-07-31T06:54:14;101972.16;;;21.67
64916;BMP280;51427;-27.442;153.014;2023-07-31T06:56:41;101981.03;;;21.61
64916;BMP280;51427;-27.442;153.014;2023-07-31T06:59:09;101979.31;;;21.62
64916;BMP280;51427;-27.442;153.014;2023-07-31T07:01:37;101976.25;;;21.57
64916;BMP280;51427;-27.442;153.014;2023-07-31T07:04:04;101982.75;;;21.61
64916;BMP280;51427;-27.442;153.014;2023-07-31T07:06:32;101990.50;;;21.47
64916;BMP280;51427;-27.442;153.014;2023-07-31T07:08:59;101989.59;;;21.35
64916;BMP280;51427;-27.442;153.014;2023-07-31T07:11:27;102000.47;;;21.25
64916;BMP280;51427;-27.442;153.014;2023-07-31T07:13:55;102004.16;;;21.21
64916;BMP280;51427;-27.442;153.014;2023-07-31T07:16:22;102008.25;;;21.24
64916;BMP280;51427;-27.442;153.014;2023-07-31T07:18:50;102014.94;;;21.25
64916;BMP280;51427;-27.442;153.014;2023-07-31T07:21:17;102000.91;;;21.07
64916;BMP280;51427;-27.442;153.014;2023-07-31T07:23:45;102016.75;;;20.98
64916;BMP280;51427;-27.442;153.014;2023-07-31T07:26:12;102015.84;;;20.99
64916;BMP280;51427;-27.442;153.014;2023-07-31T07:28:40;102023.88;;;20.93
64916;BMP280;51427;-27.442;153.014;2023-07-31T07:31:08;102023.97;;;20.79
64916;BMP280;51427;-27.442;153.014;2023-07-31T07:33:35;102038.00;;;20.85
64916;BMP280;51427;-27.442;153.014;2023-07-31T07:36:03;102049.41;;;20.79
64916;BMP280;51427;-27.442;153.014;2023-07-31T07:38:32;102047.59;;;20.93
64916;BMP280;51427;-27.442;153.014;2023-07-31T07:41:00;102055.91;;;20.83
64916;BMP280;51427;-27.442;153.014;2023-07-31T07:43:27;102057.22;;;20.76
64916;BMP280;51427;-27.442;153.014;2023-07-31T07:45:55;102049.72;;;20.87
64916;BMP280;51427;-27.442;153.014;2023-07-31T07:48:22;102052.59;;;20.95
64916;BMP280;51427;-27.442;153.014;2023-07-31T07:50:56;102055.44;;;21.03
64916;BMP280;51427;-27.442;153.014;2023-07-31T07:53:24;102045.75;;;20.95
64916;BMP280;51427;-27.442;153.014;2023-07-31T07:55:51;102049.34;;;20.93
64916;BMP280;51427;-27.442;153.014;2023-07-31T07:58:19;102058.91;;;20.90
64916;BMP280;51427;-27.442;153.014;2023-07-31T08:00:55;102067.78;;;20.70
64916;BMP280;51427;-27.442;153.014;2023-07-31T08:03:22;102079.78;;;20.28
64916;BMP280;51427;-27.442;153.014;2023-07-31T08:05:50;102091.50;;;20.17
64916;BMP280;51427;-27.442;153.014;2023-07-31T08:08:18;102089.88;;;20.16
64916;BMP280;51427;-27.442;153.014;2023-07-31T08:10:46;102087.00;;;20.48
64916;BMP280;51427;-27.442;153.014;2023-07-31T08:13:14;102085.69;;;20.69
64916;BMP280;51427;-27.442;153.014;2023-07-31T08:15:44;102093.75;;;20.61
64916;BMP280;51427;-27.442;153.014;2023-07-31T08:18:12;102089.16;;;20.68
64916;BMP280;51427;-27.442;153.014;2023-07-31T08:20:40;102085.59;;;20.56
64916;BMP280;51427;-27.442;153.014;2023-07-31T08:23:07;102099.25;;;20.55
64916;BMP280;51427;-27.442;153.014;2023-07-31T08:25:36;102096.09;;;20.38
64916;BMP280;51427;-27.442;153.014;2023-07-31T08:28:04;102099.78;;;20.60
64916;BMP280;51427;-27.442;153.014;2023-07-31T08:30:32;102106.47;;;20.61
64916;BMP280;51427;-27.442;153.014;2023-07-31T08:33:03;102104.53;;;20.52
64916;BMP280;51427;-27.442;153.014;2023-07-31T08:35:31;102109.97;;;20.46
64916;BMP280;51427;-27.442;153.014;2023-07-31T08:37:59;102114.47;;;20.15
64916;BMP280;51427;-27.442;153.014;2023-07-31T08:40:26;102122.81;;;20.03
64916;BMP280;51427;-27.442;153.014;2023-07-31T08:42:56;102118.19;;;20.10
64916;BMP280;51427;-27.442;153.014;2023-07-31T08:45:25;102124.00;;;20.12
64916;BMP280;51427;-27.442;153.014;2023-07-31T08:47:53;102124.91;;;20.25
64916;BMP280;51427;-27.442;153.014;2023-07-31T08:50:23;102128.09;;;20.00
64916;BMP280;51427;-27.442;153.014;2023-07-31T08:52:51;102121.09;;;20.04
64916;BMP280;51427;-27.442;153.014;2023-07-31T08:55:19;102125.41;;;19.74
64916;BMP280;51427;-27.442;153.014;2023-07-31T08:57:53;102125.09;;;19.94
64916;BMP280;51427;-27.442;153.014;2023-07-31T09:00:21;102129.41;;;19.78
64916;BMP280;51427;-27.442;153.014;2023-07-31T09:03:02;102135.56;;;19.74
64916;BMP280;51427;-27.442;153.014;2023-07-31T09:05:31;102144.16;;;19.29
64916;BMP280;51427;-27.442;153.014;2023-07-31T09:07:59;102148.91;;;19.35
64916;BMP280;51427;-27.442;153.014;2023-07-31T09:10:27;102140.34;;;19.65
64916;BMP280;51427;-27.442;153.014;2023-07-31T09:12:55;102140.63;;;19.74
64916;BMP280;51427;-27.442;153.014;2023-07-31T09:15:24;102146.91;;;19.40
64916;BMP280;51427;-27.442;153.014;2023-07-31T09:18:00;102148.19;;;19.33
64916;BMP280;51427;-27.442;153.014;2023-07-31T09:20:28;102157.03;;;19.26
64916;BMP280;51427;-27.442;153.014;2023-07-31T09:22:56;102152.16;;;19.37
64916;BMP280;51427;-27.442;153.014;2023-07-31T09:25:25;102161.78;;;19.32
64916;BMP280;51427;-27.442;153.014;2023-07-31T09:28:01;102164.78;;;19.38
64916;BMP280;51427;-27.442;153.014;2023-07-31T09:30:29;102155.63;;;19.36
64916;BMP280;51427;-27.442;153.014;2023-07-31T09:33:06;102172.41;;;19.38
64916;BMP280;51427;-27.442;153.014;2023-07-31T09:35:36;102169.00;;;19.24
64916;BMP280;51427;-27.442;153.014;2023-07-31T09:38:10;102174.47;;;19.32
64916;BMP280;51427;-27.442;153.014;2023-07-31T09:40:41;102178.53;;;19.05
64916;BMP280;51427;-27.442;153.014;2023-07-31T09:43:10;102174.31;;;18.89
64916;BMP280;51427;-27.442;153.014;2023-07-31T09:45:42;102187.19;;;19.01
64916;BMP280;51427;-27.442;153.014;2023-07-31T09:48:12;102185.72;;;19.12
64916;BMP280;51427;-27.442;153.014;2023-07-31T09:50:45;102194.09;;;18.67
64916;BMP280;51427;-27.442;153.014;2023-07-31T09:53:13;102196.53;;;18.53
64916;BMP280;51427;-27.442;153.014;2023-07-31T09:55:42;102189.88;;;18.67
64916;BMP280;51427;-27.442;153.014;2023-07-31T09:58:11;102196.06;;;18.62
64916;BMP280;51427;-27.442;153.014;2023-07-31T10:00:39;102199.75;;;18.87
64916;BMP280;51427;-27.442;153.014;2023-07-31T10:03:10;102196.25;;;18.90
64916;BMP280;51427;-27.442;153.014;2023-07-31T10:05:45;102202.13;;;18.75
64916;BMP280;51427;-27.442;153.014;2023-07-31T10:08:14;102211.13;;;18.65
64916;BMP280;51427;-27.442;153.014;2023-07-31T10:10:44;102216.75;;;18.55
64916;BMP280;51427;-27.442;153.014;2023-07-31T10:13:13;102214.22;;;18.55
64916;BMP280;51427;-27.442;153.014;2023-07-31T10:15:41;102208.19;;;18.72
64916;BMP280;51427;-27.442;153.014;2023-07-31T10:18:10;102219.63;;;18.49
64916;BMP280;51427;-27.442;153.014;2023-07-31T10:20:37;102217.16;;;18.62
64916;BMP280;51427;-27.442;153.014;2023-07-31T10:23:07;102214.97;;;18.24
64916;BMP280;51427;-27.442;153.014;2023-07-31T10:25:34;102213.38;;;18.39
64916;BMP280;51427;-27.442;153.014;2023-07-31T10:28:02;102214.59;;;18.32
64916;BMP280;51427;-27.442;153.014;2023-07-31T10:30:32;102222.03;;;18.01
64916;BMP280;51427;-27.442;153.014;2023-07-31T10:33:01;102223.63;;;17.87
64916;BMP280;51427;-27.442;153.014;2023-07-31T10:35:29;102223.94;;;18.15
64916;BMP280;51427;-27.442;153.014;2023-07-31T10:38:10;102227.78;;;18.21
64916;BMP280;51427;-27.442;153.014;2023-07-31T10:40:41;102229.91;;;18.46
64916;BMP280;51427;-27.442;153.014;2023-07-31T10:43:08;102232.69;;;18.41
64916;BMP280;51427;-27.442;153.014;2023-07-31T10:45:39;102231.63;;;18.28
64916;BMP280;51427;-27.442;153.014;2023-07-31T10:48:16;102230.59;;;18.32
64916;BMP280;51427;-27.442;153.014;2023-07-31T10:50:51;102240.44;;;18.05
64916;BMP280;51427;-27.442;153.014;2023-07-31T10:53:32;102245.97;;;17.79
64916;BMP280;51427;-27.442;153.014;2023-07-31T10:56:01;102243.81;;;18.05
64916;BMP280;51427;-27.442;153.014;2023-07-31T10:58:30;102242.97;;;17.88
64916;BMP280;51427;-27.442;153.014;2023-07-31T11:01:00;102253.84;;;17.56
64916;BMP280;51427;-27.442;153.014;2023-07-31T11:03:50;102257.69;;;17.46
64916;BMP280;51427;-27.442;153.014;2023-07-31T11:06:20;102259.09;;;17.52
64916;BMP280;51427;-27.442;153.014;2023-07-31T11:08:49;102263.72;;;17.44
64916;BMP280;51427;-27.442;153.014;2023-07-31T11:11:20;102258.47;;;17.65
64916;BMP280;51427;-27.442;153.014;2023-07-31T11:13:52;102262.09;;;17.60
64916;BMP280;51427;-27.442;153.014;2023-07-31T11:16:21;102263.78;;;17.24
64916;BMP280;51427;-27.442;153.014;2023-07-31T11:18:49;102264.81;;;17.02
64916;BMP280;51427;-27.442;153.014;2023-07-31T11:21:20;102270.06;;;17.16
64916;BMP280;51427;-27.442;153.014;2023-07-31T11:23:57;102280.19;;;16.97
64916;BMP280;51427;-27.442;153.014;2023-07-31T11:26:25;102271.94;;;17.12
64916;BMP280;51427;-27.442;153.014;2023-07-31T11:28:52;102267.97;;;17.43
64916;BMP280;51427;-27.442;153.014;2023-07-31T11:31:20;102272.88;;;17.46
64916;BMP280;51427;-27.442;153.014;2023-07-31T11:33:47;102269.31;;;17.32
64916;BMP280;51427;-27.442;153.014;2023-07-31T11:36:19;102270.81;;;17.18
64916;BMP280;51427;-27.442;153.014;2023-07-31T11:38:47;102272.66;;;17.14
64916;BMP280;51427;-27.442;153.014;2023-07-31T11:41:15;102279.69;;;16.89
64916;BMP280;51427;-27.442;153.014;2023-07-31T11:43:43;102278.59;;;16.77
64916;BMP280;51427;-27.442;153.014;2023-07-31T11:46:10;102283.88;;;17.09
64916;BMP280;51427;-27.442;153.014;2023-07-31T11:48:38;102286.47;;;17.07
64916;BMP280;51427;-27.442;153.014;2023-07-31T11:51:07;102281.22;;;16.93
64916;BMP280;51427;-27.442;153.014;2023-07-31T11:53:47;102284.00;;;16.87
64916;BMP280;51427;-27.442;153.014;2023-07-31T11:56:18;102290.34;;;16.77
64916;BMP280;51427;-27.442;153.014;2023-07-31T11:58:57;102289.97;;;17.05
64916;BMP280;51427;-27.442;153.014;2023-07-31T12:01:26;102298.31;;;17.07
64916;BMP280;51427;-27.442;153.014;2023-07-31T12:03:54;102293.56;;;16.99
64916;BMP280;51427;-27.442;153.014;2023-07-31T12:06:21;102294.47;;;16.98
64916;BMP280;51427;-27.442;153.014;2023-07-31T12:08:49;102302.56;;;17.06
64916;BMP280;51427;-27.442;153.014;2023-07-31T12:11:16;102305.56;;;16.76
64916;BMP280;51427;-27.442;153.014;2023-07-31T12:13:44;102314.88;;;16.56
64916;BMP280;51427;-27.442;153.014;2023-07-31T12:16:11;102312.72;;;16.67
64916;BMP280;51427;-27.442;153.014;2023-07-31T12:18:39;102317.56;;;16.33
64916;BMP280;51427;-27.442;153.014;2023-07-31T12:21:08;102317.00;;;16.05
64916;BMP280;51427;-27.442;153.014;2023-07-31T12:23:38;102318.38;;;16.33
64916;BMP280;51427;-27.442;153.014;2023-07-31T12:26:12;102313.00;;;16.21
64916;BMP280;51427;-27.442;153.014;2023-07-31T12:28:44;102319.19;;;16.54
64916;BMP280;51427;-27.442;153.014;2023-07-31T12:31:20;102319.75;;;16.60
64916;BMP280;51427;-27.442;153.014;2023-07-31T12:33:50;102313.63;;;16.66
64916;BMP280;51427;-27.442;153.014;2023-07-31T12:36:22;102317.44;;;16.36
64916;BMP280;51427;-27.442;153.014;2023-07-31T12:38:53;102317.13;;;16.24
64916;BMP280;51427;-27.442;153.014;2023-07-31T12:41:23;102322.16;;;16.43
64916;BMP280;51427;-27.442;153.014;2023-07-31T12:43:50;102318.13;;;16.39
64916;BMP280;51427;-27.442;153.014;2023-07-31T12:46:18;102315.59;;;16.39
64916;BMP280;51427;-27.442;153.014;2023-07-31T12:48:45;102315.09;;;16.32
64916;BMP280;51427;-27.442;153.014;2023-07-31T12:51:12;102316.16;;;16.46
64916;BMP280;51427;-27.442;153.014;2023-07-31T12:53:40;102318.88;;;16.22
64916;BMP280;51427;-27.442;153.014;2023-07-31T12:56:07;102311.88;;;16.48
64916;BMP280;51427;-27.442;153.014;2023-07-31T12:58:35;102318.06;;;16.21
64916;BMP280;51427;-27.442;153.014;2023-07-31T13:01:02;102317.25;;;15.78
64916;BMP280;51427;-27.442;153.014;2023-07-31T13:03:29;102320.00;;;15.51
64916;BMP280;51427;-27.442;153.014;2023-07-31T13:05:56;102312.97;;;15.59
64916;BMP280;51427;-27.442;153.014;2023-07-31T13:08:23;102318.91;;;16.00
64916;BMP280;51427;-27.442;153.014;2023-07-31T13:10:51;102313.97;;;15.97
64916;BMP280;51427;-27.442;153.014;2023-07-31T13:13:18;102310.75;;;15.73
64916;BMP280;51427;-27.442;153.014;2023-07-31T13:15:46;102303.53;;;15.64
64916;BMP280;51427;-27.442;153.014;2023-07-31T13:18:13;102311.97;;;15.41
64916;BMP280;51427;-27.442;153.014;2023-07-31T13:20:40;102314.56;;;15.61
64916;BMP280;51427;-27.442;153.014;2023-07-31T13:23:07;102318.38;;;15.71
64916;BMP280;51427;-27.442;153.014;2023-07-31T13:25:35;102307.84;;;15.39
64916;BMP280;51427;-27.442;153.014;2023-07-31T13:28:02;102314.09;;;15.06
64916;BMP280;51427;-27.442;153.014;2023-07-31T13:30:29;102319.41;;;14.99
64916;BMP280;51427;-27.442;153.014;2023-07-31T13:32:56;102317.06;;;15.17
64916;BMP280;51427;-27.442;153.014;2023-07-31T13:35:23;102308.06;;;15.10
64916;BMP280;51427;-27.442;153.014;2023-07-31T13:37:51;102311.56;;;15.06
64916;BMP280;51427;-27.442;153.014;2023-07-31T13:40:18;102312.63;;;15.01